Terminal Aerodrome Forecast
Issued by NWS Boston, MA

Home | Current Version | Previous Version | Text Only | Print | Product List | Glossary Off
Versions: 1 2 3 4 5 6 7 8 9 10 11 12 13 14 15 16 17 18 19 20 21 22 23 24 25 26 27 28 29 30 31 32 33 34 35 36 37 38 39 40 41 42 43 44 45 46 47 48 49 50
000 FTUS41 KBOX 270545 TAFBDL TAF KBDL 270545Z 2706/2812 34010KT 4SM -SN BR SCT015 OVC025 FM270900 33009KT P6SM OVC025 FM271100 32006KT P6SM OVC025 FM272100 32004KT P6SM OVC015 FM280000 31004KT P6SM OVC025 FM280900 31006KT P6SM BKN050=

USA.gov is the U.S. government's official web portal to all federal, state and local government web resources and services.